Time;durP1;ratioP1;P1;durP2;ratioP2;P2;SDS_P1;SDS_P2;PMS_P1;PMS_P2;Temp;Humidity;BMP_temperature;BMP_pressure;BME280_temperature;BME280_humidity;BME280_pressure;Samples;Min_cycle;Max_cycle;Signal;HPM_P1;HPM_P2
2024/01/11 00:00:07;;;;;;;27.30;11.77;;;-2.90;99.90;;;;;;4137740;28;20053;-82
2024/01/11 00:03:04;;;;;;;29.08;11.18;;;-4.30;99.90;;;;;;4121050;28;20031;-82
2024/01/11 00:05:06;;;;;;;33.90;12.80;;;;;;;;;;4120536;28;20066;-82
2024/01/11 00:07:18;;;;;;;28.70;11.73;;;-4.90;99.90;;;;;;4117201;28;20087;-82
2024/01/11 00:12:19;;;;;;;32.20;12.63;;;-4.40;99.90;;;;;;4117105;29;19991;-82
2024/01/11 00:14:23;;;;;;;26.77;11.80;;;-4.50;99.90;;;;;;4117274;29;20047;-82
2024/01/11 00:16:41;;;;;;;28.10;11.43;;;-4.50;99.90;;;;;;4100963;29;20051;-82
2024/01/11 00:18:50;;;;;;;30.48;12.10;;;-4.40;99.90;;;;;;4085453;29;20047;-82
2024/01/11 00:24:10;;;;;;;26.50;11.57;;;;;;;;;;4135099;28;20032;-81
2024/01/11 00:26:13;;;;;;;28.25;11.68;;;;;;;;;;4117222;29;20055;-82
2024/01/11 00:28:23;;;;;;;31.60;12.20;;;;;;;;;;4108645;28;20087;-80
2024/01/11 00:33:12;;;;;;;30.75;12.07;;;-5.20;99.90;;;;;;4137728;28;19905;-81
2024/01/11 00:38:39;;;;;;;28.45;11.93;;;-4.90;99.90;;;;;;4139055;28;20112;-81
2024/01/11 00:40:51;;;;;;;31.67;12.10;;;-4.50;99.90;;;;;;4120360;28;20042;-82
2024/01/11 00:42:53;;;;;;;35.22;13.63;;;-5.50;99.90;;;;;;4120130;28;20082;-82
2024/01/11 00:45:22;;;;;;;44.17;14.50;;;-4.60;99.90;;;;;;4118454;28;20047;-83
2024/01/11 00:47:46;;;;;;;34.58;13.30;;;-4.00;99.90;;;;;;4133870;28;20091;-83
2024/01/11 00:49:48;;;;;;;37.17;14.57;;;;;;;;;;4101345;29;20058;-83
2024/01/11 00:51:53;;;;;;;43.28;14.65;;;;;;;;;;4117107;29;20051;-82
2024/01/11 00:54:11;;;;;;;35.67;14.57;;;;;;;;;;4133174;28;20066;-83
2024/01/11 00:56:25;;;;;;;40.58;15.45;;;;;;;;;;4149730;28;20054;-83
2024/01/11 00:58:30;;;;;;;47.05;16.98;;;;;;;;;;4116747;28;20051;-83
2024/01/11 01:00:41;;;;;;;41.13;15.50;;;;;;;;;;4115276;29;20050;-81
2024/01/11 01:02:52;;;;;;;42.35;16.45;;;;;;;;;;4119270;28;20072;-81
2024/01/11 01:04:59;;;;;;;39.70;15.30;;;;;;;;;;4157490;28;20064;-82
2024/01/11 01:07:10;;;;;;;40.97;14.80;;;;;;;;;;4148380;28;20053;-81
2024/01/11 01:09:20;;;;;;;37.78;15.98;;;;;;;;;;4148221;28;20046;-81
2024/01/11 01:11:31;;;;;;;39.25;14.55;;;;;;;;;;4148607;28;20114;-82
2024/01/11 01:13:55;;;;;;;33.97;14.15;;;;;;;;;;4124145;28;20128;-82
2024/01/11 01:15:59;;;;;;;40.42;14.05;;;;;;;;;;4150904;28;20050;-82
2024/01/11 01:18:01;;;;;;;39.20;15.07;;;;;;;;;;4133133;28;20027;-81
2024/01/11 01:20:06;;;;;;;40.33;14.55;;;;;;;;;;4154303;28;20058;-82
2024/01/11 01:22:10;;;;;;;45.22;15.88;;;;;;;;;;4137787;28;20031;-82
2024/01/11 01:35:07;;;;;;;36.03;13.32;;;-5.10;99.90;;;;;;5198112;22;1481790;-83
2024/01/11 01:37:10;;;;;;;43.50;14.98;;;-4.50;99.90;;;;;;5277260;22;20020;-80
2024/01/11 01:39:13;;;;;;;37.08;14.95;;;-4.50;99.90;;;;;;5277079;22;20002;-81
2024/01/11 01:41:17;;;;;;;36.63;14.98;;;-3.90;99.90;;;;;;5277113;22;20090;-81
2024/01/11 01:43:29;;;;;;;40.78;15.10;;;-3.60;99.90;;;;;;5276233;22;20014;-81
2024/01/11 01:45:53;;;;;;;40.08;13.90;;;-5.00;99.90;;;;;;5276108;22;19995;-81
2024/01/11 01:50:21;;;;;;;35.83;13.60;;;-4.50;99.90;;;;;;5233486;22;20029;-80
2024/01/11 01:52:25;;;;;;;37.25;16.25;;;-3.60;99.90;;;;;;5224590;22;20007;-81
2024/01/11 01:56:47;;;;;;;;;;;;;;;;;;;;;
2024/01/11 01:59:13;;;;;;;43.38;17.92;;;-4.60;99.90;;;;;;5249770;22;20007;-82
2024/01/11 02:01:15;;;;;;;37.22;15.80;;;-4.40;99.90;;;;;;5226325;22;20027;-83
2024/01/11 02:03:16;;;;;;;41.65;15.43;;;-5.20;99.90;;;;;;5265704;22;20029;-81
2024/01/11 02:07:30;;;;;;;36.45;14.82;;;-4.50;99.90;;;;;;5250213;22;20010;-81
2024/01/11 02:09:36;;;;;;;37.45;14.32;;;-3.20;99.90;;;;;;5224295;22;20157;-82
2024/01/11 02:16:51;;;;;;;43.03;14.93;;;-4.60;99.90;;;;;;5246967;22;20033;-80
2024/01/11 02:18:52;;;;;;;35.67;14.23;;;-4.60;99.90;;;;;;5219394;22;20091;-80
2024/01/11 02:21:09;;;;;;;35.08;14.65;;;-3.90;99.90;;;;;;5224859;22;20011;-81
2024/01/11 02:26:14;;;;;;;36.25;14.32;;;-4.70;99.90;;;;;;5224356;22;20011;-82
2024/01/11 02:29:03;;;;;;;38.15;14.55;;;-4.60;99.90;;;;;;5249791;22;20010;-82
2024/01/11 02:31:04;;;;;;;36.33;13.55;;;-4.70;99.90;;;;;;5203738;22;20017;-80
2024/01/11 02:36:22;;;;;;;38.05;14.48;;;-4.70;99.90;;;;;;5269945;22;19998;-82
2024/01/11 02:38:54;;;;;;;35.17;13.38;;;-3.70;99.90;;;;;;5240989;22;20023;-82
2024/01/11 02:41:26;;;;;;;36.50;14.73;;;-4.60;99.90;;;;;;5266468;22;20082;-82
2024/01/11 02:43:49;;;;;;;31.85;12.93;;;-4.20;99.90;;;;;;5267703;22;20015;-83
2024/01/11 02:45:59;;;;;;;37.30;14.57;;;-3.40;99.90;;;;;;5267675;22;20018;-82
2024/01/11 02:48:18;;;;;;;41.10;14.73;;;-4.30;99.90;;;;;;5241356;22;20094;-81
2024/01/11 02:53:38;;;;;;;40.22;14.52;;;-4.80;99.90;;;;;;5267860;22;20013;-81
2024/01/11 02:55:41;;;;;;;41.22;14.98;;;-3.70;99.90;;;;;;5267394;22;20019;-81
2024/01/11 02:58:37;;;;;;;36.63;14.32;;;-4.60;99.90;;;;;;5215297;22;20015;-81
2024/01/11 03:00:39;;;;;;;37.25;14.88;;;-4.70;99.90;;;;;;5266866;22;20025;-83
2024/01/11 03:02:41;;;;;;;39.00;14.85;;;-3.40;99.90;;;;;;5241174;22;20007;-83
2024/01/11 03:04:47;;;;;;;36.63;14.95;;;-5.90;99.90;;;;;;5266735;22;20019;-82
2024/01/11 03:06:52;;;;;;;38.08;14.93;;;-3.50;99.90;;;;;;5266629;22;20025;-82
2024/01/11 03:08:53;;;;;;;36.45;13.85;;;-3.70;99.90;;;;;;5267494;22;20026;-82
2024/01/11 03:11:06;;;;;;;39.97;15.20;;;-3.40;99.90;;;;;;5266402;22;20011;-82
2024/01/11 03:13:20;;;;;;;38.20;14.65;;;-4.70;99.90;;;;;;5267569;22;20049;-83
2024/01/11 03:15:21;;;;;;;35.08;14.00;;;-5.70;99.90;;;;;;5240240;22;20023;-83
2024/01/11 03:17:34;;;;;;;41.85;15.48;;;-4.70;99.90;;;;;;5240520;22;20035;-82
2024/01/11 03:19:41;;;;;;;38.63;14.57;;;-3.50;99.90;;;;;;5240360;22;20034;-83
2024/01/11 03:21:47;;;;;;;43.22;14.98;;;-4.50;99.90;;;;;;5266170;22;20019;-83
2024/01/11 03:24:01;;;;;;;38.03;14.55;;;-4.40;99.90;;;;;;5266123;22;20003;-83
2024/01/11 03:26:49;;;;;;;40.13;15.70;;;-3.70;99.90;;;;;;5266946;22;20021;-83
2024/01/11 03:28:59;;;;;;;41.42;15.48;;;-4.40;99.90;;;;;;5240449;22;20015;-83
2024/01/11 03:31:25;;;;;;;37.45;14.80;;;-4.50;99.90;;;;;;5214651;22;20000;-82
2024/01/11 03:33:48;;;;;;;35.38;14.57;;;-3.90;99.90;;;;;;5239756;22;20070;-82
2024/01/11 03:36:23;;;;;;;39.92;14.73;;;-3.90;99.90;;;;;;5239862;22;20006;-82
2024/01/11 03:38:26;;;;;;;44.83;15.13;;;-4.20;99.90;;;;;;5240754;22;20067;-82
2024/01/11 03:40:28;;;;;;;38.13;13.85;;;-4.30;99.90;;;;;;5239693;22;20016;-82
2024/01/11 03:42:59;;;;;;;39.50;14.88;;;-4.40;99.90;;;;;;5266638;22;20019;-82
2024/01/11 03:45:11;;;;;;;36.30;13.65;;;-4.40;99.90;;;;;;5239974;22;20393;-83
2024/01/11 03:47:12;;;;;;;43.08;15.38;;;-5.50;99.90;;;;;;5240046;22;20007;-82
2024/01/11 03:49:22;;;;;;;44.90;16.40;;;-3.30;99.90;;;;;;5240018;22;20067;-82
2024/01/11 03:52:06;;;;;;;42.92;16.60;;;-3.40;99.90;;;;;;5240783;22;20019;-82
2024/01/11 03:54:09;;;;;;;39.88;15.80;;;-4.20;99.90;;;;;;5240087;22;20015;-80
2024/01/11 03:56:16;;;;;;;41.50;14.93;;;-2.30;99.90;;;;;;5239254;22;20011;-80
2024/01/11 03:58:35;;;;;;;41.15;15.48;;;-3.30;99.90;;;;;;5266320;22;20019;-81
2024/01/11 04:00:51;;;;;;;44.63;16.77;;;-4.00;99.90;;;;;;5266654;22;20015;-80
2024/01/11 04:03:11;;;;;;;41.75;15.52;;;-3.40;99.90;;;;;;5266866;22;20042;-80
2024/01/11 04:05:31;;;;;;;42.28;16.00;;;-4.00;99.90;;;;;;5267448;22;20025;-81
2024/01/11 04:07:35;;;;;;;39.63;14.75;;;-3.90;99.90;;;;;;5267798;22;20010;-82
2024/01/11 04:09:39;;;;;;;42.50;15.13;;;-2.60;99.90;;;;;;5241305;22;20052;-82
2024/01/11 04:11:40;;;;;;;45.67;17.50;;;-4.60;99.90;;;;;;5267964;22;19999;-81
2024/01/11 04:13:49;;;;;;;41.40;15.73;;;-2.60;99.90;;;;;;5265728;22;20018;-81
2024/01/11 04:15:52;;;;;;;40.40;15.32;;;-2.70;99.90;;;;;;5238488;22;20554;-82
2024/01/11 04:18:15;;;;;;;39.40;15.05;;;-3.20;99.90;;;;;;5238397;22;20019;-82
2024/01/11 04:20:45;;;;;;;41.22;15.73;;;-3.70;99.90;;;;;;5266676;22;20444;-81
2024/01/11 04:23:04;;;;;;;35.92;13.98;;;-3.60;99.90;;;;;;5269818;22;20018;-82
2024/01/11 04:25:20;;;;;;;42.78;16.23;;;-3.70;99.90;;;;;;5243089;22;20007;-82
2024/01/11 04:27:50;;;;;;;39.80;14.68;;;-3.60;99.90;;;;;;5269860;22;20056;-82
2024/01/11 04:30:02;;;;;;;46.45;16.60;;;-4.60;99.90;;;;;;5266632;22;19999;-81
2024/01/11 04:32:05;;;;;;;38.17;15.13;;;-3.60;99.90;;;;;;5255613;22;20054;-82
2024/01/11 04:34:21;;;;;;;44.13;16.27;;;-3.00;99.90;;;;;;5266305;22;20019;-81
2024/01/11 04:36:31;;;;;;;40.28;15.15;;;-2.80;99.90;;;;;;5240640;22;20007;-82
2024/01/11 04:38:32;;;;;;;38.85;14.20;;;-3.70;99.90;;;;;;5267054;22;20018;-82
2024/01/11 04:40:47;;;;;;;46.10;17.15;;;-3.50;99.90;;;;;;5266899;22;20013;-82
2024/01/11 04:42:54;;;;;;;42.70;15.50;;;;;;;;;;5267319;22;20010;-82
2024/01/11 04:45:04;;;;;;;38.90;15.95;;;;;;;;;;5266551;22;20014;-82
2024/01/11 04:47:08;;;;;;;48.22;16.38;;;;;;;;;;5266486;22;20006;-82
2024/01/11 04:51:59;;;;;;;44.28;16.55;;;;;;;;;;5266869;22;20022;-80
2024/01/11 04:54:02;;;;;;;40.63;15.80;;;;;;;;;;5267403;22;20066;-79
2024/01/11 04:56:22;;;;;;;41.60;15.85;;;;;;;;;;5267088;22;20007;-80
2024/01/11 04:58:45;;;;;;;42.95;15.32;;;;;;;;;;5267267;22;20019;-80
2024/01/11 05:00:47;;;;;;;46.67;15.70;;;-2.50;99.90;;;;;;5267433;22;20025;-80
2024/01/11 05:02:50;;;;;;;45.10;16.48;;;-2.90;99.90;;;;;;5268609;22;20007;-80
2024/01/11 05:05:06;;;;;;;41.58;16.63;;;-4.30;99.90;;;;;;5243387;22;20003;-82
2024/01/11 05:08:03;;;;;;;43.50;15.45;;;-2.00;99.90;;;;;;5269521;22;20022;-83
2024/01/11 05:10:09;;;;;;;46.58;16.20;;;;;;;;;;5270058;22;20027;-83
2024/01/11 05:15:08;;;;;;;43.05;15.10;;;;;;;;;;5270188;22;20010;-83
2024/01/11 05:17:44;;;;;;;40.20;15.02;;;;;;;;;;5269755;22;20051;-83
2024/01/11 05:22:44;;;;;;;43.33;16.48;;;;;;;;;;5259819;22;20018;-82
2024/01/11 05:24:50;;;;;;;42.58;15.25;;;;;;;;;;5217329;22;20039;-82
2024/01/11 05:27:13;;;;;;;40.95;15.98;;;;;;;;;;5243620;22;20013;-82
2024/01/11 05:29:15;;;;;;;43.80;16.63;;;;;;;;;;5217158;22;20034;-82
2024/01/11 05:31:19;;;;;;;41.05;16.02;;;;;;;;;;5191796;22;20020;-83
2024/01/11 05:33:20;;;;;;;44.22;16.10;;;;;;;;;;5217941;22;20034;-82
2024/01/11 05:35:30;;;;;;;45.10;17.30;;;;;;;;;;5243126;22;20067;-82
2024/01/11 05:37:38;;;;;;;38.78;14.80;;;;;;;;;;5243200;22;20007;-82
2024/01/11 05:39:41;;;;;;;43.53;16.95;;;;;;;;;;5193878;22;20007;-82
2024/01/11 05:41:46;;;;;;;42.42;16.35;;;;;;;;;;5218137;22;20003;-82
2024/01/11 05:43:48;;;;;;;37.75;15.45;;;;;;;;;;5217201;22;20008;-81
2024/01/11 05:45:50;;;;;;;45.17;17.15;;;;;;;;;;5188222;22;20008;-82
2024/01/11 05:48:02;;;;;;;40.20;15.95;;;;;;;;;;5217497;22;20011;-82
2024/01/11 05:50:05;;;;;;;42.38;16.63;;;;;;;;;;5218174;22;20015;-82
2024/01/11 05:52:18;;;;;;;40.63;16.77;;;;;;;;;;5243292;22;20003;-81
2024/01/11 05:54:19;;;;;;;40.65;15.63;;;;;;;;;;5213210;22;20123;-82
2024/01/11 05:56:28;;;;;;;47.20;15.93;;;;;;;;;;5217743;22;20008;-81
2024/01/11 05:58:32;;;;;;;45.30;18.25;;;;;;;;;;5206908;22;20098;-83
2024/01/11 06:00:35;;;;;;;40.42;16.08;;;;;;;;;;5242807;22;20003;-81
2024/01/11 06:02:37;;;;;;;44.65;15.68;;;;;;;;;;5230789;22;20026;-81
2024/01/11 06:05:09;;;;;;;45.10;17.38;;;;;;;;;;5243263;22;20011;-82
2024/01/11 06:07:13;;;;;;;43.38;17.05;;;;;;;;;;5217524;22;20016;-81
2024/01/11 06:09:15;;;;;;;42.40;16.38;;;;;;;;;;5243575;22;20003;-81
2024/01/11 06:11:18;;;;;;;42.55;16.02;;;;;;;;;;5244665;22;20042;-82
2024/01/11 06:13:19;;;;;;;39.95;15.15;;;;;;;;;;5214932;22;20019;-82
2024/01/11 06:15:21;;;;;;;40.10;16.00;;;;;;;;;;5188390;23;19996;-82
2024/01/11 06:17:24;;;;;;;45.35;16.88;;;;;;;;;;5213749;22;20043;-82
2024/01/11 06:19:33;;;;;;;43.90;16.65;;;;;;;;;;5188350;23;20056;-82
2024/01/11 06:21:50;;;;;;;41.35;16.55;;;;;;;;;;5213561;22;20026;-82
2024/01/11 06:23:58;;;;;;;41.47;17.08;;;;;;;;;;5213250;22;20047;-82
2024/01/11 06:26:00;;;;;;;41.40;15.95;;;;;;;;;;5239556;22;20020;-82
2024/01/11 06:28:09;;;;;;;43.70;15.23;;;;;;;;;;5212639;22;20020;-82
2024/01/11 06:30:24;;;;;;;52.08;18.67;;;;;;;;;;5209784;22;20020;-82
2024/01/11 06:32:28;;;;;;;39.85;14.93;;;;;;;;;;5213617;22;20090;-82
2024/01/11 06:34:30;;;;;;;41.85;15.70;;;;;;;;;;5212974;22;20064;-82
2024/01/11 06:36:32;;;;;;;39.45;15.68;;;;;;;;;;5213256;22;20024;-82
2024/01/11 06:38:39;;;;;;;38.72;15.00;;;;;;;;;;5213747;22;20015;-82
2024/01/11 06:40:43;;;;;;;41.30;15.80;;;;;;;;;;5213510;22;20015;-82
2024/01/11 06:42:50;;;;;;;40.50;14.98;;;;;;;;;;5212435;22;20035;-82
2024/01/11 06:44:58;;;;;;;43.20;15.55;;;;;;;;;;5212803;22;20047;-82
2024/01/11 06:47:07;;;;;;;44.20;15.07;;;;;;;;;;5212689;22;20026;-82
2024/01/11 06:49:09;;;;;;;39.05;15.98;;;;;;;;;;5212889;22;20015;-82
2024/01/11 06:51:15;;;;;;;36.08;13.88;;;-3.20;99.90;;;;;;5239781;22;20015;-82
2024/01/11 06:53:22;;;;;;;34.80;13.18;;;-2.50;99.90;;;;;;5186725;23;20020;-82
2024/01/11 06:55:26;;;;;;;40.38;15.73;;;-2.00;99.90;;;;;;5239701;22;20021;-82
2024/01/11 06:57:36;;;;;;;36.65;15.23;;;-2.10;99.90;;;;;;5212888;22;20016;-82
2024/01/11 06:59:55;;;;;;;36.65;14.00;;;-1.70;99.90;;;;;;5211577;22;20020;-82
2024/01/11 07:01:56;;;;;;;40.88;14.73;;;-1.90;99.90;;;;;;5240140;22;20006;-81
2024/01/11 07:03:59;;;;;;;36.50;13.93;;;-0.80;99.90;;;;;;5244108;22;20072;-81
2024/01/11 07:06:17;;;;;;;37.58;14.20;;;;;;;;;;5217901;22;20258;-81
2024/01/11 07:08:24;;;;;;;38.05;15.13;;;;;;;;;;5244737;22;20010;-82
2024/01/11 07:10:26;;;;;;;37.63;14.02;;;;;;;;;;5244326;22;20007;-82
2024/01/11 07:12:29;;;;;;;40.67;14.98;;;;;;;;;;5244198;22;19999;-81
2024/01/11 07:14:31;;;;;;;37.80;13.63;;;;;;;;;;5217869;22;20010;-81
2024/01/11 07:16:34;;;;;;;36.97;13.20;;;;;;;;;;5241621;22;20015;-81
2024/01/11 07:18:37;;;;;;;40.13;15.00;;;;;;;;;;5212507;22;20026;-81
2024/01/11 07:20:43;;;;;;;36.50;12.98;;;;;;;;;;5238644;22;20015;-81
2024/01/11 07:22:48;;;;;;;37.13;14.23;;;;;;;;;;5239048;22;20038;-81
2024/01/11 07:24:50;;;;;;;33.95;12.52;;;;;;;;;;5239242;22;20023;-81
2024/01/11 07:26:55;;;;;;;37.60;13.10;;;-1.90;99.90;;;;;;5238589;22;20023;-82
2024/01/11 07:29:01;;;;;;;33.65;13.45;;;-1.30;99.90;;;;;;5238892;22;20019;-82
2024/01/11 07:31:04;;;;;;;33.95;14.20;;;-2.00;99.90;;;;;;5239030;22;20007;-81
2024/01/11 07:33:11;;;;;;;33.88;13.55;;;-0.90;99.90;;;;;;5240126;22;20015;-81
2024/01/11 07:35:22;;;;;;;35.35;13.95;;;-0.20;99.90;;;;;;5240926;22;20026;-82
2024/01/11 07:37:26;;;;;;;37.15;14.73;;;-1.30;99.90;;;;;;5240932;22;20084;-81
2024/01/11 07:39:29;;;;;;;37.03;15.00;;;-1.00;99.90;;;;;;5244495;22;20003;-81
2024/01/11 07:41:40;;;;;;;34.95;14.10;;;-0.10;99.90;;;;;;5218038;22;20008;-81
2024/01/11 07:43:48;;;;;;;38.47;14.77;;;-0.60;99.90;;;;;;5217702;22;20004;-81
2024/01/11 07:45:58;;;;;;;33.35;13.75;;;-1.40;99.90;;;;;;5243999;22;20007;-83
2024/01/11 07:48:12;;;;;;;36.40;14.07;;;-0.80;99.90;;;;;;5243944;22;20023;-85
2024/01/11 07:50:14;;;;;;;41.10;14.07;;;0.00;99.90;;;;;;5217584;22;20020;-82
2024/01/11 07:52:15;;;;;;;35.33;13.80;;;-2.50;99.90;;;;;;5243363;22;20034;-82
2024/01/11 07:54:23;;;;;;;32.90;13.82;;;-0.10;99.90;;;;;;5242650;22;20021;-81
2024/01/11 07:56:26;;;;;;;32.53;13.30;;;-0.90;99.90;;;;;;5241847;22;20015;-81
2024/01/11 07:58:29;;;;;;;35.05;13.07;;;-0.60;99.90;;;;;;5238638;22;20043;-81
2024/01/11 08:00:31;;;;;;;32.65;12.80;;;-0.40;99.90;;;;;;5237498;22;20046;-81
2024/01/11 08:02:33;;;;;;;32.20;12.80;;;-0.40;99.90;;;;;;5235279;22;20039;-81
2024/01/11 08:04:38;;;;;;;36.50;13.13;;;-1.20;99.90;;;;;;5236151;22;20015;-81
2024/01/11 08:06:40;;;;;;;33.40;13.10;;;-0.50;99.90;;;;;;5235831;22;20022;-81
2024/01/11 08:08:41;;;;;;;35.08;14.27;;;-1.10;99.90;;;;;;5210093;22;20016;-81
2024/01/11 08:10:43;;;;;;;35.00;12.73;;;-1.30;99.90;;;;;;5237075;22;20003;-81
2024/01/11 08:12:45;;;;;;;33.92;13.25;;;-1.20;99.90;;;;;;5236969;22;20062;-81
2024/01/11 08:14:52;;;;;;;32.08;12.63;;;-0.90;99.90;;;;;;5209617;22;20015;-81
2024/01/11 08:16:55;;;;;;;30.50;12.63;;;-0.70;99.90;;;;;;5209224;22;20085;-81
2024/01/11 08:18:57;;;;;;;28.85;12.70;;;-0.30;99.90;;;;;;5236717;22;20067;-81
2024/01/11 08:20:59;;;;;;;29.88;12.05;;;-1.70;99.90;;;;;;5236302;22;20445;-81
2024/01/11 08:23:09;;;;;;;35.00;14.10;;;-0.70;99.90;;;;;;5236851;22;20029;-81
2024/01/11 08:25:10;;;;;;;30.20;12.57;;;0.00;99.90;;;;;;5236600;22;20019;-81
2024/01/11 08:27:17;;;;;;;32.22;12.75;;;-1.80;99.90;;;;;;5236089;22;20029;-81
2024/01/11 08:29:19;;;;;;;29.50;11.43;;;-0.90;99.90;;;;;;5235174;22;20039;-81
2024/01/11 08:31:21;;;;;;;33.28;13.60;;;-0.10;99.90;;;;;;5235167;22;20050;-81
2024/01/11 08:33:23;;;;;;;31.90;12.57;;;-0.80;99.90;;;;;;5235938;22;20045;-81
2024/01/11 08:35:28;;;;;;;32.22;13.30;;;-0.20;99.90;;;;;;5235238;22;20016;-81
2024/01/11 08:37:40;;;;;;;30.25;12.18;;;-0.80;99.90;;;;;;5236050;22;20445;-81
2024/01/11 08:39:42;;;;;;;34.47;12.98;;;-0.60;99.90;;;;;;5235700;22;20023;-81
2024/01/11 08:41:44;;;;;;;31.38;13.15;;;-1.10;99.90;;;;;;5235425;22;20049;-81
2024/01/11 08:44:09;;;;;;;35.38;13.23;;;0.10;99.90;;;;;;5234603;22;20039;-81
2024/01/11 08:46:25;;;;;;;33.80;12.98;;;-0.60;99.90;;;;;;5236200;22;20041;-81
2024/01/11 08:48:32;;;;;;;31.55;12.95;;;-0.60;99.90;;;;;;5235314;22;20015;-81
2024/01/11 08:50:40;;;;;;;32.42;12.63;;;-0.40;99.90;;;;;;5235471;22;20016;-81
2024/01/11 08:52:42;;;;;;;30.23;11.75;;;-0.20;99.90;;;;;;5236099;22;20022;-81
2024/01/11 08:54:53;;;;;;;33.90;12.52;;;0.10;99.90;;;;;;5235796;22;20088;-81
2024/01/11 08:56:55;;;;;;;33.25;12.57;;;0.20;99.90;;;;;;5235854;22;20019;-81
2024/01/11 08:58:58;;;;;;;34.17;12.18;;;0.60;99.90;;;;;;5234814;22;20019;-80
2024/01/11 09:00:59;;;;;;;31.13;12.82;;;-0.30;99.90;;;;;;5235518;22;20011;-81
2024/01/11 09:03:00;;;;;;;32.15;11.27;;;0.60;99.90;;;;;;5207861;22;20078;-81
2024/01/11 09:05:03;;;;;;;35.65;14.43;;;-0.30;99.90;;;;;;5208588;22;20019;-82
2024/01/11 09:07:07;;;;;;;31.20;11.82;;;-0.30;99.90;;;;;;5205788;22;20012;-80
2024/01/11 09:09:10;;;;;;;30.55;12.55;;;-0.70;99.90;;;;;;5207234;22;20043;-79
2024/01/11 09:11:17;;;;;;;29.80;11.52;;;-0.20;99.90;;;;;;5207154;22;20575;-79
2024/01/11 09:13:18;;;;;;;30.50;12.23;;;-0.10;99.90;;;;;;5208356;22;20016;-79
2024/01/11 09:15:19;;;;;;;33.25;13.50;;;;;;;;;;5208351;22;20015;-79
2024/01/11 09:17:21;;;;;;;28.17;12.02;;;;;;;;;;5208827;22;20024;-79
2024/01/11 09:19:22;;;;;;;29.02;12.65;;;;;;;;;;5207151;22;20039;-79
2024/01/11 09:21:29;;;;;;;32.28;13.23;;;;;;;;;;5204567;22;20412;-79
2024/01/11 09:23:31;;;;;;;31.92;13.15;;;;;;;;;;5207545;22;20020;-79
2024/01/11 09:25:32;;;;;;;40.10;13.65;;;;;;;;;;5207433;22;20027;-79
2024/01/11 09:27:35;;;;;;;34.80;13.25;;;;;;;;;;5206331;22;20050;-79
2024/01/11 09:29:42;;;;;;;36.67;14.68;;;;;;;;;;5205888;22;20027;-79
2024/01/11 09:31:44;;;;;;;30.80;11.82;;;;;;;;;;5206181;22;20016;-79
2024/01/11 09:33:48;;;;;;;34.55;14.02;;;;;;;;;;5205218;22;20016;-78
2024/01/11 09:35:51;;;;;;;31.88;12.35;;;;;;;;;;5204718;22;20016;-78
2024/01/11 09:37:53;;;;;;;35.83;14.55;;;;;;;;;;5205563;22;20065;-78
2024/01/11 09:39:54;;;;;;;29.65;11.48;;;;;;;;;;5205170;22;20046;-78
2024/01/11 09:42:11;;;;;;;30.02;12.00;;;;;;;;;;5205841;22;20020;-80
2024/01/11 09:44:13;;;;;;;31.67;12.15;;;;;;;;;;5207348;22;20048;-80
2024/01/11 09:46:14;;;;;;;31.58;12.07;;;;;;;;;;5208431;22;20020;-80
2024/01/11 09:48:17;;;;;;;30.27;11.70;;;0.00;99.90;;;;;;5207884;22;20019;-80
2024/01/11 09:50:21;;;;;;;29.52;11.48;;;0.30;99.90;;;;;;5207191;22;20019;-80
2024/01/11 09:52:26;;;;;;;28.42;12.05;;;0.40;99.90;;;;;;5208222;22;20019;-80
2024/01/11 09:54:28;;;;;;;37.15;11.85;;;1.80;99.90;;;;;;5207436;22;20038;-79
2024/01/11 09:56:35;;;;;;;27.73;12.45;;;0.70;99.90;;;;;;5208267;22;20039;-80
2024/01/11 09:58:40;;;;;;;28.85;12.23;;;0.50;99.90;;;;;;5206850;22;20018;-79
2024/01/11 10:00:43;;;;;;;33.13;11.57;;;1.30;99.90;;;;;;5206570;22;20026;-86
2024/01/11 10:02:48;;;;;;;23.85;11.00;;;1.10;99.90;;;;;;5207549;22;20022;-85
2024/01/11 10:04:52;;;;;;;26.35;11.38;;;0.60;99.90;;;;;;5207438;22;20020;-85
2024/01/11 10:06:55;;;;;;;29.92;11.50;;;1.80;99.90;;;;;;5206149;22;20106;-86
2024/01/11 10:08:56;;;;;;;30.48;11.90;;;1.10;99.90;;;;;;5180044;23;20020;-86
2024/01/11 10:11:15;;;;;;;27.38;10.95;;;-0.50;99.90;;;;;;5177813;23;20016;-86
2024/01/11 10:13:16;;;;;;;;;;;2.50;99.90;;;;;;5207231;22;20022;-86
2024/01/11 10:15:18;;;;;;;28.23;10.90;;;0.70;99.90;;;;;;5179335;23;19920;-86
2024/01/11 10:17:26;;;;;;;24.90;10.52;;;0.30;99.90;;;;;;5204627;22;20066;-85
2024/01/11 10:19:33;;;;;;;27.15;11.60;;;1.50;99.90;;;;;;5178651;23;20021;-87
2024/01/11 10:21:39;;;;;;;23.75;10.13;;;0.80;99.90;;;;;;5204022;22;20112;-87
2024/01/11 10:23:46;;;;;;;28.73;10.90;;;2.10;99.90;;;;;;5202861;22;20023;-87
2024/01/11 10:25:49;;;;;;;27.40;11.27;;;0.40;99.90;;;;;;5178459;23;20020;-87
2024/01/11 10:27:51;;;;;;;29.13;10.35;;;0.90;99.90;;;;;;5203033;22;20019;-87
2024/01/11 10:29:55;;;;;;;25.30;10.02;;;1.60;99.90;;;;;;5205722;22;20090;-86
2024/01/11 10:31:56;;;;;;;28.65;10.40;;;0.90;99.90;;;;;;5206898;22;20151;-86
2024/01/11 10:33:57;;;;;;;23.35;10.55;;;1.00;99.90;;;;;;5205074;22;20011;-87
2024/01/11 10:36:02;;;;;;;24.40;9.43;;;1.00;99.90;;;;;;5205723;22;20051;-87
2024/01/11 10:38:09;;;;;;;26.17;10.73;;;0.20;99.90;;;;;;5204074;22;20019;-88
2024/01/11 10:40:15;;;;;;;29.15;11.07;;;2.20;99.90;;;;;;5206179;22;20024;-87
2024/01/11 10:42:18;;;;;;;33.10;13.90;;;1.10;99.90;;;;;;5177311;23;20024;-87
2024/01/11 10:44:21;;;;;;;29.40;13.25;;;1.50;99.90;;;;;;5180593;23;20016;-87
2024/01/11 10:46:26;;;;;;;30.50;13.02;;;2.00;99.90;;;;;;5203816;22;20019;-87
2024/01/11 10:48:37;;;;;;;28.48;12.07;;;1.80;99.90;;;;;;5212359;22;19996;-86
2024/01/11 10:50:45;;;;;;;22.55;10.27;;;1.10;99.90;;;;;;5192317;22;20425;-86
2024/01/11 10:53:03;;;;;;;26.65;11.63;;;1.10;99.90;;;;;;5218153;22;20004;-87
2024/01/11 10:55:05;;;;;;;26.40;10.60;;;2.30;99.90;;;;;;5217661;22;19999;-86
2024/01/11 10:57:09;;;;;;;26.50;10.68;;;2.30;99.90;;;;;;5205431;22;20019;-87
2024/01/11 10:59:13;;;;;;;22.40;10.13;;;3.10;99.90;;;;;;5180006;23;20370;-87
2024/01/11 11:01:16;;;;;;;24.40;10.85;;;1.20;99.90;;;;;;5207045;22;20366;-87
2024/01/11 11:03:20;;;;;;;22.92;10.25;;;2.00;99.90;;;;;;5180362;22;20067;-87
2024/01/11 11:05:25;;;;;;;21.50;10.15;;;1.20;99.90;;;;;;5205421;22;20099;-87
2024/01/11 11:07:28;;;;;;;27.80;10.50;;;1.20;99.90;;;;;;5176510;23;20047;-87
2024/01/11 11:09:34;;;;;;;24.40;9.77;;;1.20;99.90;;;;;;5202989;22;20016;-87
2024/01/11 11:11:38;;;;;;;28.38;10.50;;;0.20;99.90;;;;;;5176700;23;20091;-87
2024/01/11 11:13:41;;;;;;;25.58;10.63;;;1.20;99.90;;;;;;5175856;23;20016;-87
2024/01/11 11:15:46;;;;;;;21.48;9.18;;;1.30;99.90;;;;;;5202443;22;20022;-87
2024/01/11 11:17:50;;;;;;;26.90;10.25;;;0.30;99.90;;;;;;5201724;22;20016;-88
2024/01/11 11:19:53;;;;;;;23.13;10.48;;;1.60;99.90;;;;;;5175457;23;20102;-87
2024/01/11 11:21:55;;;;;;;25.15;10.38;;;1.30;99.90;;;;;;5176877;23;20030;-87
2024/01/11 11:23:57;;;;;;;23.02;10.18;;;1.30;99.90;;;;;;5201360;22;20478;-86
2024/01/11 11:26:00;;;;;;;23.80;8.80;;;1.40;99.90;;;;;;5203141;22;20027;-88
2024/01/11 11:28:06;;;;;;;23.75;10.13;;;1.40;99.90;;;;;;5176795;23;20071;-88
2024/01/11 11:30:09;;;;;;;26.33;10.50;;;1.40;99.90;;;;;;5176406;22;20055;-88
2024/01/11 11:32:11;;;;;;;27.33;10.18;;;1.40;99.90;;;;;;5203267;22;20023;-88
2024/01/11 11:34:14;;;;;;;20.63;8.73;;;1.40;99.90;;;;;;5200664;22;20054;-88
2024/01/11 11:36:17;;;;;;;19.45;9.40;;;1.40;99.90;;;;;;5176360;23;20035;-87
2024/01/11 11:38:22;;;;;;;21.67;9.40;;;1.40;99.90;;;;;;5204661;22;20016;-87
2024/01/11 11:40:39;;;;;;;26.70;10.02;;;1.60;99.90;;;;;;5176150;23;20019;-87
2024/01/11 11:42:41;;;;;;;25.05;10.30;;;1.50;99.90;;;;;;5201408;22;20070;-87
2024/01/11 11:44:53;;;;;;;27.92;9.55;;;1.50;99.90;;;;;;5199893;22;20023;-88
2024/01/11 11:46:53;;;;;;;22.15;9.80;;;1.20;99.90;;;;;;5174534;23;20055;-87
2024/01/11 11:48:56;;;;;;;21.88;8.75;;;1.50;99.90;;;;;;5201119;22;20023;-88
2024/01/11 11:51:05;;;;;;;23.00;9.93;;;1.20;99.90;;;;;;5199625;22;20030;-88
2024/01/11 11:53:11;;;;;;;25.85;9.35;;;1.50;99.90;;;;;;5200288;22;20046;-88
2024/01/11 11:55:13;;;;;;;24.58;10.32;;;2.70;99.90;;;;;;5200858;22;20027;-88
2024/01/11 11:57:17;;;;;;;25.50;9.70;;;1.10;99.90;;;;;;5199784;22;20021;-88
2024/01/11 11:59:19;;;;;;;27.30;9.85;;;2.80;99.90;;;;;;5200993;22;20020;-88
2024/01/11 12:01:21;;;;;;;20.90;9.38;;;;;;;;;;5178847;23;20032;-88
2024/01/11 12:03:30;;;;;;;29.38;9.65;;;;;;;;;;5204342;22;20102;-88
2024/01/11 12:05:32;;;;;;;28.02;9.80;;;;;;;;;;5206177;22;20028;-88
2024/01/11 12:07:34;;;;;;;26.80;11.23;;;;;;;;;;5203628;22;20070;-86
2024/01/11 12:09:35;;;;;;;27.63;9.73;;;;;;;;;;5205405;22;20015;-86
2024/01/11 12:11:37;;;;;;;26.92;9.45;;;;;;;;;;5183008;23;20028;-86
2024/01/11 12:13:44;;;;;;;23.95;10.25;;;;;;;;;;5214822;22;20019;-87